createdAt,value
2024-05-09T00:01:13.655Z,7.90
2024-05-09T00:03:44.393Z,7.90
2024-05-09T00:06:17.116Z,7.90
2024-05-09T00:08:47.102Z,7.90
2024-05-09T00:11:17.425Z,7.90
2024-05-09T00:13:47.403Z,7.80
2024-05-09T00:16:17.473Z,7.80
2024-05-09T00:18:47.511Z,7.80
2024-05-09T00:21:20.096Z,7.80
2024-05-09T00:23:49.991Z,7.80
2024-05-09T00:26:20.140Z,7.80
2024-05-09T00:28:50.234Z,7.80
2024-05-09T00:31:20.114Z,7.70
2024-05-09T00:33:50.033Z,7.70
2024-05-09T00:36:22.610Z,7.60
2024-05-09T00:38:52.559Z,7.50
2024-05-09T00:41:22.528Z,7.50
2024-05-09T00:43:52.419Z,7.50
2024-05-09T00:46:22.884Z,7.40
2024-05-09T00:48:52.873Z,7.40
2024-05-09T00:51:25.557Z,7.40
2024-05-09T00:53:55.644Z,7.40
2024-05-09T00:56:25.710Z,7.40
2024-05-09T00:58:56.251Z,7.40
2024-05-09T01:01:28.001Z,7.40
2024-05-09T01:03:58.266Z,7.40
2024-05-09T01:06:31.046Z,7.40
2024-05-09T01:09:01.078Z,7.40
2024-05-09T01:11:36.653Z,7.40
2024-05-09T01:14:06.645Z,7.40
2024-05-09T01:16:36.867Z,7.30
2024-05-09T01:19:08.235Z,7.30
2024-05-09T01:21:43.230Z,7.20
2024-05-09T01:24:15.748Z,7.20
2024-05-09T01:26:45.676Z,7.20
2024-05-09T01:29:15.680Z,7.10
2024-05-09T01:31:45.805Z,7.10
2024-05-09T01:34:16.309Z,7.10
2024-05-09T01:36:46.269Z,7.10
2024-05-09T01:39:18.810Z,7.00
2024-05-09T01:41:48.708Z,7.00
2024-05-09T01:44:18.613Z,7.00
2024-05-09T01:46:48.607Z,7.00
2024-05-09T01:49:18.659Z,7.10
2024-05-09T01:51:48.679Z,7.10
2024-05-09T01:54:21.260Z,7.10
2024-05-09T01:56:51.251Z,7.00
2024-05-09T01:59:21.206Z,7.00
2024-05-09T02:01:56.759Z,6.90
2024-05-09T02:04:27.909Z,6.90
2024-05-09T02:06:57.892Z,6.90
2024-05-09T02:09:30.523Z,6.80
2024-05-09T02:12:00.588Z,6.80
2024-05-09T02:14:30.768Z,6.80
2024-05-09T02:17:00.800Z,6.80
2024-05-09T02:19:30.789Z,6.70
2024-05-09T02:22:00.746Z,6.80
2024-05-09T02:24:33.218Z,6.70
2024-05-09T02:27:03.107Z,6.70
2024-05-09T02:29:33.319Z,6.70
2024-05-09T02:32:03.330Z,6.70
2024-05-09T02:34:33.317Z,6.70
2024-05-09T02:37:00.541Z,6.70
2024-05-09T02:39:33.906Z,6.70
2024-05-09T02:42:01.200Z,6.70
2024-05-09T02:44:31.154Z,6.60
2024-05-09T02:46:58.385Z,6.60
2024-05-09T02:49:28.470Z,6.60
2024-05-09T02:51:57.489Z,6.60
2024-05-09T02:54:27.361Z,6.60
2024-05-09T02:56:57.222Z,6.60
2024-05-09T02:59:27.062Z,6.50
2024-05-09T03:01:55.171Z,6.40
2024-05-09T03:04:25.045Z,6.50
2024-05-09T03:06:52.412Z,6.50
2024-05-09T03:09:22.205Z,6.40
2024-05-09T03:11:49.899Z,6.50
2024-05-09T03:14:22.762Z,6.60
2024-05-09T03:16:50.353Z,6.50
2024-05-09T03:19:20.452Z,6.50
2024-05-09T03:21:47.701Z,6.50
2024-05-09T03:24:17.765Z,6.50
2024-05-09T03:26:45.031Z,6.60
2024-05-09T03:29:14.861Z,6.50
2024-05-09T03:31:44.837Z,6.50
2024-05-09T03:34:15.249Z,6.50
2024-05-09T03:36:43.061Z,6.50
2024-05-09T03:39:13.380Z,6.50
2024-05-09T03:41:43.373Z,6.50
2024-05-09T03:44:14.390Z,6.60
2024-05-09T03:46:44.672Z,6.60
2024-05-09T03:49:14.809Z,6.70
2024-05-09T03:51:42.999Z,6.60
2024-05-09T03:54:12.828Z,6.60
2024-05-09T03:56:42.943Z,6.70
2024-05-09T03:59:12.922Z,6.70
2024-05-09T04:01:40.215Z,6.80
2024-05-09T04:04:13.040Z,6.80
2024-05-09T04:06:40.679Z,6.70
2024-05-09T04:09:10.620Z,6.70
2024-05-09T04:11:40.579Z,6.70
2024-05-09T04:14:07.909Z,6.70
2024-05-09T04:16:37.765Z,6.70
2024-05-09T04:19:05.128Z,6.80
2024-05-09T04:21:37.620Z,6.90
2024-05-09T04:24:05.511Z,6.90
2024-05-09T04:26:35.505Z,7.00
2024-05-09T04:29:04.726Z,7.00
2024-05-09T04:31:38.899Z,7.10
2024-05-09T04:34:07.786Z,7.20
2024-05-09T04:36:43.220Z,7.40
2024-05-09T04:39:11.691Z,7.30
2024-05-09T04:41:41.688Z,7.30
2024-05-09T04:44:08.990Z,7.30
2024-05-09T04:46:39.671Z,7.40
2024-05-09T04:49:07.067Z,7.50
2024-05-09T04:51:40.729Z,7.60
2024-05-09T04:54:12.986Z,7.70
2024-05-09T04:56:48.587Z,7.80
2024-05-09T04:59:15.871Z,7.90
2024-05-09T05:01:45.833Z,8.00
2024-05-09T05:04:13.729Z,8.10
2024-05-09T05:06:46.363Z,8.20
2024-05-09T05:09:13.831Z,8.30
2024-05-09T05:11:43.673Z,8.50
2024-05-09T05:14:14.283Z,8.70
2024-05-09T05:16:44.198Z,8.90
2024-05-09T05:19:13.506Z,9.20
2024-05-09T05:21:47.852Z,9.40
2024-05-09T05:24:15.180Z,9.60
2024-05-09T05:26:45.020Z,9.80
2024-05-09T05:29:12.466Z,10.00
2024-05-09T05:31:42.372Z,10.30
2024-05-09T05:34:09.652Z,10.60
2024-05-09T05:36:39.508Z,10.90
2024-05-09T05:39:09.469Z,11.10
2024-05-09T05:41:39.389Z,11.50
2024-05-09T05:44:06.615Z,11.80
2024-05-09T05:46:36.520Z,12.10
2024-05-09T05:49:03.864Z,12.40
2024-05-09T05:51:33.777Z,12.60
2024-05-09T05:54:01.037Z,12.90
2024-05-09T05:56:33.607Z,12.90
2024-05-09T05:59:00.904Z,13.10
2024-05-09T06:01:30.859Z,13.40
2024-05-09T06:03:58.456Z,13.80
2024-05-09T06:06:29.123Z,14.00
2024-05-09T06:08:56.421Z,14.20
2024-05-09T06:11:26.427Z,14.50
2024-05-09T06:13:56.630Z,14.70
2024-05-09T06:16:26.577Z,15.10
2024-05-09T06:18:54.215Z,15.40
2024-05-09T06:21:24.239Z,15.50
2024-05-09T06:23:53.358Z,15.50
2024-05-09T06:26:23.302Z,15.60
2024-05-09T06:28:50.564Z,15.90
2024-05-09T06:31:23.200Z,16.10
2024-05-09T06:33:50.515Z,16.40
2024-05-09T06:36:20.372Z,16.50
2024-05-09T06:38:48.778Z,16.50
2024-05-09T06:41:18.706Z,16.60
2024-05-09T06:43:46.015Z,16.70
2024-05-09T06:46:15.976Z,16.70
2024-05-09T06:48:48.208Z,16.90
2024-05-09T06:51:18.432Z,17.10
2024-05-09T06:53:47.451Z,17.20
2024-05-09T06:56:17.426Z,17.10
2024-05-09T06:58:44.683Z,17.20
2024-05-09T07:01:14.591Z,17.10
2024-05-09T07:03:42.090Z,17.00
2024-05-09T07:06:14.647Z,17.30
2024-05-09T07:08:41.982Z,17.60
2024-05-09T07:11:12.004Z,17.90
2024-05-09T07:13:39.615Z,18.10
2024-05-09T07:16:09.832Z,18.30
2024-05-09T07:18:37.515Z,18.40
2024-05-09T07:21:08.161Z,18.60
2024-05-09T07:23:38.786Z,18.70
2024-05-09T07:26:08.797Z,18.90
2024-05-09T07:28:36.750Z,19.20
2024-05-09T07:31:06.775Z,18.90
2024-05-09T07:33:34.075Z,18.60
2024-05-09T07:36:03.992Z,18.50
2024-05-09T07:38:31.259Z,18.50
2024-05-09T07:41:04.081Z,18.30
2024-05-09T07:43:31.322Z,18.40
2024-05-09T07:46:37.844Z,18.70
2024-05-09T07:53:54.751Z,18.80
2024-05-09T07:56:30.070Z,19.30
2024-05-09T07:58:57.653Z,19.50
2024-05-09T08:01:28.302Z,19.70
2024-05-09T08:03:55.768Z,19.70
2024-05-09T08:06:26.160Z,19.70
2024-05-09T08:08:53.504Z,19.90
2024-05-09T08:11:23.865Z,19.90
2024-05-09T08:13:54.097Z,19.70
2024-05-09T08:16:24.107Z,19.70
2024-05-09T08:18:52.222Z,20.20
2024-05-09T08:21:22.101Z,20.60
2024-05-09T08:23:49.415Z,20.70
2024-05-09T08:26:19.251Z,21.10
2024-05-09T08:28:46.712Z,20.70
2024-05-09T08:31:19.438Z,20.50
2024-05-09T08:33:47.804Z,20.10
2024-05-09T08:36:18.646Z,19.70
2024-05-09T08:38:46.138Z,19.60
2024-05-09T08:41:17.148Z,19.40
2024-05-09T08:43:44.937Z,19.70
2024-05-09T08:46:15.752Z,19.70
2024-05-09T08:48:48.190Z,19.70
2024-05-09T08:51:18.448Z,20.40
2024-05-09T08:53:45.777Z,20.40
2024-05-09T08:56:17.534Z,20.10
2024-05-09T08:58:45.502Z,20.20
2024-05-09T09:01:16.720Z,20.50
2024-05-09T09:03:48.850Z,20.60
2024-05-09T09:06:21.688Z,20.60
2024-05-09T09:08:51.977Z,20.70
2024-05-09T09:11:21.977Z,20.70
2024-05-09T09:13:49.509Z,20.60
2024-05-09T09:16:19.537Z,20.70
2024-05-09T09:18:51.186Z,20.80
2024-05-09T09:21:21.237Z,21.00
2024-05-09T09:23:48.507Z,21.20
2024-05-09T09:26:21.513Z,21.10
2024-05-09T09:28:48.953Z,21.60
2024-05-09T09:31:21.468Z,21.90
2024-05-09T09:33:52.306Z,21.90
2024-05-09T09:36:22.404Z,21.60
2024-05-09T09:38:51.803Z,21.30
2024-05-09T09:41:27.691Z,21.00
2024-05-09T09:43:57.844Z,21.30
2024-05-09T09:46:29.262Z,21.20
2024-05-09T09:48:59.457Z,21.20
2024-05-09T09:51:29.959Z,21.40
2024-05-09T09:53:58.578Z,21.60
2024-05-09T09:56:30.396Z,21.60
2024-05-09T09:58:58.355Z,21.80
2024-05-09T10:01:28.308Z,21.90
2024-05-09T10:03:58.490Z,21.90
2024-05-09T10:06:29.856Z,22.20
2024-05-09T10:08:57.458Z,22.20
2024-05-09T10:11:28.372Z,22.20
2024-05-09T10:13:57.422Z,22.40
2024-05-09T10:16:32.873Z,22.50
2024-05-09T10:19:02.931Z,22.30
2024-05-09T10:21:35.847Z,22.30
2024-05-09T10:24:04.118Z,22.20
2024-05-09T10:26:35.603Z,22.20
2024-05-09T10:29:12.154Z,22.20
2024-05-09T10:31:45.762Z,21.90
2024-05-09T10:34:22.559Z,21.90
2024-05-09T10:36:56.537Z,21.80
2024-05-09T10:39:25.312Z,22.00
2024-05-09T10:41:55.134Z,21.90
2024-05-09T10:44:22.607Z,21.80
2024-05-09T10:46:54.741Z,21.70
2024-05-09T10:49:25.100Z,21.90
2024-05-09T10:51:55.958Z,22.00
2024-05-09T10:54:23.298Z,22.00
2024-05-09T10:56:59.324Z,22.20
2024-05-09T10:59:33.214Z,22.30
2024-05-09T11:02:07.785Z,22.50
2024-05-09T11:04:40.018Z,22.30
2024-05-09T11:07:13.443Z,22.10
2024-05-09T11:09:41.509Z,22.40
2024-05-09T11:12:11.778Z,22.50
2024-05-09T11:14:39.068Z,22.60
2024-05-09T11:17:10.283Z,22.70
2024-05-09T11:19:44.721Z,22.40
2024-05-09T11:22:14.854Z,22.20
2024-05-09T11:24:42.240Z,22.70
2024-05-09T11:27:12.127Z,23.20
2024-05-09T11:29:41.026Z,23.10
2024-05-09T11:32:11.732Z,23.00
2024-05-09T11:34:42.311Z,23.10
2024-05-09T11:37:13.805Z,23.10
2024-05-09T11:39:41.359Z,22.90
2024-05-09T11:42:11.288Z,22.50
2024-05-09T11:44:38.511Z,22.30
2024-05-09T11:47:08.470Z,22.30
2024-05-09T11:49:35.880Z,22.10
2024-05-09T11:52:08.733Z,21.70
2024-05-09T11:54:36.048Z,21.50
2024-05-09T11:57:06.056Z,21.70
2024-05-09T11:59:33.305Z,22.00
2024-05-09T12:02:03.346Z,22.10
2024-05-09T12:04:30.796Z,22.00
2024-05-09T12:07:00.903Z,22.00
2024-05-09T12:09:31.805Z,22.10
2024-05-09T12:12:01.811Z,22.00
2024-05-09T12:14:29.913Z,21.80
2024-05-09T12:17:01.231Z,21.60
2024-05-09T12:19:28.599Z,21.70
2024-05-09T12:21:58.581Z,21.60
2024-05-09T12:24:28.839Z,21.60
2024-05-09T12:27:01.685Z,21.40
2024-05-09T12:29:28.990Z,21.40
2024-05-09T12:31:58.861Z,21.40
2024-05-09T12:34:26.939Z,21.50
2024-05-09T12:36:56.939Z,21.60
2024-05-09T12:39:24.199Z,21.70
2024-05-09T12:41:53.997Z,21.80
2024-05-09T12:44:24.061Z,21.70
2024-05-09T12:46:54.061Z,21.90
2024-05-09T12:49:24.355Z,22.00
2024-05-09T12:51:54.526Z,21.70
2024-05-09T12:54:21.764Z,21.90
2024-05-09T12:56:51.730Z,22.10
2024-05-09T12:59:19.434Z,21.90
2024-05-09T13:01:52.140Z,22.00
2024-05-09T13:04:19.689Z,22.10
2024-05-09T13:06:49.818Z,22.10
2024-05-09T13:09:17.315Z,21.90
2024-05-09T13:11:47.161Z,21.70
2024-05-09T13:14:14.432Z,21.80
2024-05-09T13:16:44.318Z,21.90
2024-05-09T13:19:14.588Z,22.00
2024-05-09T13:21:44.609Z,22.20
2024-05-09T13:24:14.336Z,22.30
2024-05-09T13:26:44.321Z,22.30
2024-05-09T13:29:11.617Z,22.20
2024-05-09T13:31:41.447Z,21.70
2024-05-09T13:34:08.887Z,21.80
2024-05-09T13:36:42.033Z,21.90
2024-05-09T13:39:09.387Z,21.90
2024-05-09T13:41:39.225Z,21.90
2024-05-09T13:44:06.652Z,21.80
2024-05-09T13:46:36.727Z,21.70
2024-05-09T13:49:05.091Z,21.80
2024-05-09T13:51:35.444Z,21.80
2024-05-09T13:54:05.397Z,22.00
2024-05-09T13:56:35.294Z,22.00
2024-05-09T13:59:02.596Z,22.00
2024-05-09T14:01:32.613Z,22.10
2024-05-09T14:04:01.213Z,22.00
2024-05-09T14:06:31.204Z,22.00
2024-05-09T14:08:58.914Z,21.60
2024-05-09T14:11:31.482Z,21.50
2024-05-09T14:13:58.773Z,21.50
2024-05-09T14:16:28.804Z,21.60
2024-05-09T14:18:56.450Z,21.70
2024-05-09T14:21:26.382Z,21.60
2024-05-09T14:23:54.357Z,21.60
2024-05-09T14:26:24.852Z,21.70
2024-05-09T14:28:55.560Z,21.70
2024-05-09T14:31:25.480Z,21.70
2024-05-09T14:33:53.064Z,21.90
2024-05-09T14:36:23.126Z,22.00
2024-05-09T14:38:50.416Z,21.90
2024-05-09T14:41:20.250Z,21.90
2024-05-09T14:43:47.500Z,21.80
2024-05-09T14:46:20.202Z,21.80
2024-05-09T14:48:47.618Z,21.70
2024-05-09T14:51:17.558Z,21.50
2024-05-09T14:53:45.772Z,21.20
2024-05-09T14:56:15.710Z,21.20
2024-05-09T14:58:42.986Z,21.10
2024-05-09T15:01:12.964Z,21.10
2024-05-09T15:03:42.988Z,21.00
2024-05-09T15:06:13.059Z,21.20
2024-05-09T15:08:41.842Z,21.20
2024-05-09T15:11:11.866Z,21.10
2024-05-09T15:13:39.241Z,20.90
2024-05-09T15:16:09.749Z,20.90
2024-05-09T15:18:41.369Z,21.10
2024-05-09T15:21:15.560Z,21.20
2024-05-09T15:23:42.894Z,21.00
2024-05-09T15:26:13.074Z,20.90
2024-05-09T15:28:40.892Z,20.70
2024-05-09T15:31:10.936Z,20.70
2024-05-09T15:33:38.418Z,20.70
2024-05-09T15:36:08.756Z,20.70
2024-05-09T15:38:39.308Z,20.50
2024-05-09T15:41:09.148Z,20.60
2024-05-09T15:43:36.473Z,20.60
2024-05-09T15:46:06.454Z,20.60
2024-05-09T15:48:34.085Z,20.60
2024-05-09T15:51:04.105Z,20.50
2024-05-09T15:53:31.446Z,20.40
2024-05-09T15:56:04.063Z,20.50
2024-05-09T15:58:31.541Z,20.60
2024-05-09T16:01:01.617Z,20.60
2024-05-09T16:03:29.057Z,20.60
2024-05-09T16:05:59.025Z,20.60
2024-05-09T16:08:26.660Z,20.50
2024-05-09T16:10:56.790Z,20.30
2024-05-09T16:13:26.950Z,20.30
2024-05-09T16:15:57.720Z,20.30
2024-05-09T16:18:25.308Z,20.20
2024-05-09T16:21:00.040Z,20.20
2024-05-09T16:23:29.105Z,20.10
2024-05-09T16:25:59.333Z,20.30
2024-05-09T16:28:29.541Z,20.20
2024-05-09T16:31:01.473Z,20.10
2024-05-09T16:33:29.135Z,19.90
2024-05-09T16:35:59.916Z,19.70
2024-05-09T16:38:27.247Z,19.50
2024-05-09T16:40:57.215Z,19.30
2024-05-09T16:43:24.646Z,19.20
2024-05-09T16:45:57.193Z,19.10
2024-05-09T16:48:24.588Z,19.00
2024-05-09T16:50:54.517Z,19.00
2024-05-09T16:53:21.801Z,19.00
2024-05-09T16:55:51.874Z,18.90
2024-05-09T16:58:20.944Z,18.90
2024-05-09T17:00:51.064Z,18.80
2024-05-09T17:03:23.498Z,18.80
2024-05-09T17:05:53.789Z,18.70
2024-05-09T17:08:21.117Z,18.70
2024-05-09T17:10:51.297Z,18.60
2024-05-09T17:13:22.689Z,18.50
2024-05-09T17:15:53.025Z,18.50
2024-05-09T17:18:25.695Z,18.50
2024-05-09T17:20:53.213Z,18.50
2024-05-09T17:23:23.206Z,18.50
2024-05-09T17:25:51.173Z,18.40
2024-05-09T17:28:21.404Z,18.40
2024-05-09T17:30:49.134Z,18.40
2024-05-09T17:33:19.393Z,18.40
2024-05-09T17:35:51.269Z,18.30
2024-05-09T17:38:22.970Z,18.20
2024-05-09T17:40:50.988Z,18.10
2024-05-09T17:43:21.103Z,18.00
2024-05-09T17:45:48.618Z,18.10
2024-05-09T17:48:20.059Z,18.00
2024-05-09T17:50:54.147Z,18.00
2024-05-09T17:53:21.531Z,18.00
2024-05-09T17:55:53.770Z,18.00
2024-05-09T17:58:21.257Z,17.90
2024-05-09T18:00:51.449Z,18.00
2024-05-09T18:03:18.821Z,18.00
2024-05-09T18:05:48.879Z,17.90
2024-05-09T18:08:18.875Z,17.80
2024-05-09T18:10:49.451Z,17.70
2024-05-09T18:13:17.495Z,17.50
2024-05-09T18:15:47.627Z,17.50
2024-05-09T18:18:15.224Z,17.40
2024-05-09T18:20:46.236Z,17.40
2024-05-09T18:23:16.590Z,17.30
2024-05-09T18:25:54.438Z,17.30
2024-05-09T18:28:22.251Z,17.30
2024-05-09T18:30:52.400Z,17.20
2024-05-09T18:33:20.531Z,17.20
2024-05-09T18:35:50.596Z,17.20
2024-05-09T18:38:25.499Z,17.20
2024-05-09T18:40:55.805Z,17.20
2024-05-09T18:43:31.182Z,17.20
2024-05-09T18:46:08.760Z,17.20
2024-05-09T18:48:37.743Z,17.10
2024-05-09T18:51:08.274Z,17.10
2024-05-09T18:53:36.048Z,16.90
2024-05-09T18:56:09.849Z,16.80
2024-05-09T18:58:37.119Z,16.80
2024-05-09T19:01:07.371Z,16.90
2024-05-09T19:03:35.208Z,16.90
2024-05-09T19:06:05.414Z,16.80
2024-05-09T19:08:32.691Z,16.70
2024-05-09T19:11:02.715Z,16.70
2024-05-09T19:13:32.895Z,16.70
2024-05-09T19:16:03.745Z,16.70
2024-05-09T19:18:31.302Z,16.60
2024-05-09T19:21:01.562Z,16.50
2024-05-09T19:23:29.173Z,16.50
2024-05-09T19:25:59.216Z,16.50
2024-05-09T19:28:26.663Z,16.40
2024-05-09T19:30:59.244Z,16.40
2024-05-09T19:33:26.577Z,16.30
2024-05-09T19:35:56.490Z,16.20
2024-05-09T19:38:23.980Z,16.20
2024-05-09T19:40:53.804Z,16.20
2024-05-09T19:43:22.642Z,16.20
2024-05-09T19:45:52.778Z,16.10
2024-05-09T19:48:22.839Z,16.10
2024-05-09T19:50:53.341Z,16.00
2024-05-09T19:53:21.890Z,15.90
2024-05-09T19:55:51.698Z,15.90
2024-05-09T19:58:20.722Z,15.80
2024-05-09T20:00:51.042Z,15.80
2024-05-09T20:03:18.587Z,15.70
2024-05-09T20:05:51.277Z,15.60
2024-05-09T20:08:18.554Z,15.60
2024-05-09T20:10:48.580Z,15.50
2024-05-09T20:13:16.044Z,15.50
2024-05-09T20:15:46.040Z,15.40
2024-05-09T20:18:13.856Z,15.30
2024-05-09T20:20:45.292Z,15.20
2024-05-09T20:23:15.622Z,15.10
2024-05-09T20:25:45.648Z,15.10
2024-05-09T20:28:13.004Z,15.00
2024-05-09T20:30:43.025Z,15.00
2024-05-09T20:33:10.735Z,14.90
2024-05-09T20:35:40.653Z,14.90
2024-05-09T20:38:08.201Z,14.90
2024-05-09T20:40:40.739Z,14.90
2024-05-09T20:43:08.811Z,14.90
2024-05-09T20:45:39.750Z,14.90
2024-05-09T20:48:09.310Z,14.90
2024-05-09T20:50:41.887Z,14.80
2024-05-09T20:53:11.098Z,14.80
2024-05-09T20:55:44.900Z,14.80
2024-05-09T20:58:13.232Z,14.80
2024-05-09T21:00:45.486Z,14.70
2024-05-09T21:03:15.618Z,14.70
2024-05-09T21:05:47.401Z,14.70
2024-05-09T21:08:15.379Z,14.70
2024-05-09T21:10:48.118Z,14.70
2024-05-09T21:13:15.630Z,14.70
2024-05-09T21:15:45.679Z,14.70
2024-05-09T21:18:13.943Z,14.70
2024-05-09T21:20:43.979Z,14.70
2024-05-09T21:23:11.261Z,14.70
2024-05-09T21:25:41.214Z,14.70
2024-05-09T21:28:11.154Z,14.70
2024-05-09T21:30:42.936Z,14.70
2024-05-09T21:33:12.871Z,14.70
2024-05-09T21:35:44.936Z,14.70
2024-05-09T21:38:14.115Z,14.70
2024-05-09T21:40:45.119Z,14.70
2024-05-09T21:43:15.543Z,14.70
2024-05-09T21:45:45.781Z,14.70
2024-05-09T21:48:13.478Z,14.70
2024-05-09T21:50:43.595Z,14.70
2024-05-09T21:53:12.866Z,14.70
2024-05-09T21:55:43.677Z,14.60
2024-05-09T21:58:14.683Z,14.60
2024-05-09T22:00:46.462Z,14.50
2024-05-09T22:03:14.613Z,14.50
2024-05-09T22:05:45.221Z,14.40
2024-05-09T22:08:12.991Z,14.50
2024-05-09T22:10:43.162Z,14.50
2024-05-09T22:13:10.658Z,14.50
2024-05-09T22:15:43.334Z,14.50
2024-05-09T22:18:11.561Z,14.50
2024-05-09T22:20:45.682Z,14.50
2024-05-09T22:23:14.325Z,14.40
2024-05-09T22:25:44.329Z,14.40
2024-05-09T22:28:15.614Z,14.30
2024-05-09T22:30:48.344Z,14.30
2024-05-09T22:33:16.006Z,14.30
2024-05-09T22:35:47.382Z,14.30
2024-05-09T22:38:14.671Z,14.30
2024-05-09T22:40:48.421Z,14.30
2024-05-09T22:43:19.976Z,14.30
2024-05-09T22:45:54.263Z,14.20
2024-05-09T22:48:22.261Z,14.20
2024-05-09T22:50:52.548Z,14.20
2024-05-09T22:53:22.053Z,14.20
2024-05-09T22:55:51.882Z,14.20
2024-05-09T22:58:20.784Z,14.20
2024-05-09T23:00:53.606Z,14.20
2024-05-09T23:03:22.659Z,14.20
2024-05-09T23:05:52.914Z,14.20
2024-05-09T23:08:20.162Z,14.20
2024-05-09T23:10:50.018Z,14.20
2024-05-09T23:13:19.080Z,14.20
2024-05-09T23:15:49.344Z,14.10
2024-05-09T23:18:19.540Z,14.10
2024-05-09T23:20:49.586Z,14.10
2024-05-09T23:23:16.891Z,14.20
2024-05-09T23:25:47.908Z,14.10
2024-05-09T23:28:15.340Z,14.10
2024-05-09T23:30:45.221Z,14.00
2024-05-09T23:33:14.122Z,14.00
2024-05-09T23:35:47.185Z,14.00
2024-05-09T23:38:14.747Z,13.90
2024-05-09T23:40:44.756Z,13.90
2024-05-09T23:43:14.031Z,13.90
2024-05-09T23:45:44.163Z,13.80
2024-05-09T23:48:11.748Z,13.90
2024-05-09T23:50:41.981Z,13.90
2024-05-09T23:53:14.305Z,13.90
2024-05-09T23:55:44.808Z,13.80
2024-05-09T23:58:12.151Z,13.80
